Melbourn, United Kingdom
Current Conditions -  °F | °C
As of 2:50 PM on Sunday 21 Dec 2014 (Local Time) from EGSC Reporting Station
Broken Clouds Broken Clouds  
Wind Chill: 50°   Ceiling: 1600
Heat Index: 50°   Visibility: 6mi
Dew Point: 45°   Wind: 21mph
Humidity: 82%   Direction: 220°SW
Pressure: 30.18"   Gusts: NA
Location:  52.08°N, 0.02°E
Report Text: EGSC 211450Z 22018KT 170V250 9999 BKN016 10/07 Q1022
Loading
Personal Weather Stations






























Interactive Weather Map New forecast layout! Learn more

10-Day Weather Forecast

Advertisements
Track Severe Weather on mobile